Galt, Canada
Current Conditions -  °F | °C
As of 9:00 AM on Monday 20 Oct 2014 (Local Time) from CYKF Reporting Station
Overcast Overcast  
Wind Chill: 45°   Ceiling: 5000
Heat Index: 45°   Visibility: 9mi
Dew Point: 41°   Wind: 3mph
Humidity: 87%   Direction: 160°SSE
Pressure: 29.86"   Gusts: NA
Location:  43.35°N, 80.3°W
Report Text: CYKF 201300Z AUTO 16003KT 9SM OVC050 07/05 A2986 RMK SLP120
Loading
Personal Weather Stations






























Interactive Weather Map
Tropical Storm Tracking
New forecast layout! Learn more

10-Day Weather Forecast

Advertisements
Track Severe Weather on mobile